sensor_id;sensor_type;location;lat;lon;timestamp;temperature;humidity
76567;DHT22;65428;53.194;6.132;2024-01-07T00:00:19;0.70;99.90
76567;DHT22;65428;53.194;6.132;2024-01-07T00:02:45;0.70;99.90
76567;DHT22;65428;53.194;6.132;2024-01-07T00:05:11;0.90;99.90
76567;DHT22;65428;53.194;6.132;2024-01-07T00:07:36;0.80;99.90
76567;DHT22;65428;53.194;6.132;2024-01-07T00:10:02;0.70;99.90
76567;DHT22;65428;53.194;6.132;2024-01-07T00:12:28;0.70;99.90
76567;DHT22;65428;53.194;6.132;2024-01-07T00:14:54;0.70;99.90
76567;DHT22;65428;53.194;6.132;2024-01-07T00:17:20;0.70;99.90
76567;DHT22;65428;53.194;6.132;2024-01-07T00:19:46;0.90;99.90
76567;DHT22;65428;53.194;6.132;2024-01-07T00:22:12;0.90;99.90
76567;DHT22;65428;53.194;6.132;2024-01-07T00:24:37;0.80;99.90
76567;DHT22;65428;53.194;6.132;2024-01-07T00:27:03;0.80;99.90
76567;DHT22;65428;53.194;6.132;2024-01-07T00:29:29;0.70;99.90
76567;DHT22;65428;53.194;6.132;2024-01-07T00:31:55;0.80;99.90
76567;DHT22;65428;53.194;6.132;2024-01-07T00:34:21;0.70;99.90
76567;DHT22;65428;53.194;6.132;2024-01-07T00:36:47;0.70;99.90
76567;DHT22;65428;53.194;6.132;2024-01-07T00:39:12;0.70;99.90
76567;DHT22;65428;53.194;6.132;2024-01-07T00:41:38;0.70;99.90
76567;DHT22;65428;53.194;6.132;2024-01-07T00:44:04;0.70;99.90
76567;DHT22;65428;53.194;6.132;2024-01-07T00:46:29;0.70;99.90
76567;DHT22;65428;53.194;6.132;2024-01-07T00:48:55;0.60;99.90
76567;DHT22;65428;53.194;6.132;2024-01-07T00:51:21;0.60;99.90
76567;DHT22;65428;53.194;6.132;2024-01-07T00:53:46;0.60;99.90
76567;DHT22;65428;53.194;6.132;2024-01-07T00:56:12;0.60;99.90
76567;DHT22;65428;53.194;6.132;2024-01-07T00:58:38;0.60;99.90
76567;DHT22;65428;53.194;6.132;2024-01-07T01:01:05;0.60;99.90
76567;DHT22;65428;53.194;6.132;2024-01-07T01:03:31;0.60;99.90
76567;DHT22;65428;53.194;6.132;2024-01-07T01:05:56;0.60;99.90
76567;DHT22;65428;53.194;6.132;2024-01-07T01:08:22;0.60;99.90
76567;DHT22;65428;53.194;6.132;2024-01-07T01:10:48;0.60;99.90
76567;DHT22;65428;53.194;6.132;2024-01-07T01:13:14;0.60;99.90
76567;DHT22;65428;53.194;6.132;2024-01-07T01:15:40;0.60;99.90
76567;DHT22;65428;53.194;6.132;2024-01-07T01:18:05;0.60;99.90
76567;DHT22;65428;53.194;6.132;2024-01-07T01:20:31;0.60;99.90
76567;DHT22;65428;53.194;6.132;2024-01-07T01:22:57;0.70;99.90
76567;DHT22;65428;53.194;6.132;2024-01-07T01:25:22;0.80;99.90
76567;DHT22;65428;53.194;6.132;2024-01-07T01:27:48;0.40;99.90
76567;DHT22;65428;53.194;6.132;2024-01-07T01:30:14;0.70;99.90
76567;DHT22;65428;53.194;6.132;2024-01-07T01:32:39;0.70;99.90
76567;DHT22;65428;53.194;6.132;2024-01-07T01:35:06;0.70;99.90
76567;DHT22;65428;53.194;6.132;2024-01-07T01:37:31;0.70;99.90
76567;DHT22;65428;53.194;6.132;2024-01-07T01:39:58;0.70;99.90
76567;DHT22;65428;53.194;6.132;2024-01-07T01:42:24;0.70;99.90
76567;DHT22;65428;53.194;6.132;2024-01-07T01:44:50;0.70;99.90
76567;DHT22;65428;53.194;6.132;2024-01-07T01:47:17;0.70;99.90
76567;DHT22;65428;53.194;6.132;2024-01-07T01:49:42;0.50;99.90
76567;DHT22;65428;53.194;6.132;2024-01-07T01:52:09;0.70;99.90
76567;DHT22;65428;53.194;6.132;2024-01-07T01:54:35;0.90;99.90
76567;DHT22;65428;53.194;6.132;2024-01-07T01:57:01;0.70;99.90
76567;DHT22;65428;53.194;6.132;2024-01-07T01:59:28;0.70;99.90
76567;DHT22;65428;53.194;6.132;2024-01-07T02:01:54;0.80;99.90
76567;DHT22;65428;53.194;6.132;2024-01-07T02:04:20;0.80;99.90
76567;DHT22;65428;53.194;6.132;2024-01-07T02:06:46;0.70;99.90
76567;DHT22;65428;53.194;6.132;2024-01-07T02:09:12;0.80;99.90
76567;DHT22;65428;53.194;6.132;2024-01-07T02:11:37;0.70;99.90
76567;DHT22;65428;53.194;6.132;2024-01-07T02:14:03;0.70;99.90
76567;DHT22;65428;53.194;6.132;2024-01-07T02:16:29;0.70;99.90
76567;DHT22;65428;53.194;6.132;2024-01-07T02:18:55;0.80;99.90
76567;DHT22;65428;53.194;6.132;2024-01-07T02:21:20;0.80;99.90
76567;DHT22;65428;53.194;6.132;2024-01-07T02:23:46;0.70;99.90
76567;DHT22;65428;53.194;6.132;2024-01-07T02:26:12;0.60;99.90
76567;DHT22;65428;53.194;6.132;2024-01-07T02:28:37;0.70;99.90
76567;DHT22;65428;53.194;6.132;2024-01-07T02:31:03;0.70;99.90
76567;DHT22;65428;53.194;6.132;2024-01-07T02:33:29;0.70;99.90
76567;DHT22;65428;53.194;6.132;2024-01-07T02:35:56;0.90;99.90
76567;DHT22;65428;53.194;6.132;2024-01-07T02:38:22;0.80;99.90
76567;DHT22;65428;53.194;6.132;2024-01-07T02:40:47;0.70;99.90
76567;DHT22;65428;53.194;6.132;2024-01-07T02:43:13;0.70;99.90
76567;DHT22;65428;53.194;6.132;2024-01-07T02:45:38;0.60;99.90
76567;DHT22;65428;53.194;6.132;2024-01-07T02:48:04;0.70;99.90
76567;DHT22;65428;53.194;6.132;2024-01-07T02:50:33;0.70;99.90
76567;DHT22;65428;53.194;6.132;2024-01-07T02:52:59;0.60;99.90
76567;DHT22;65428;53.194;6.132;2024-01-07T02:55:24;0.90;99.90
76567;DHT22;65428;53.194;6.132;2024-01-07T02:57:50;0.60;99.90
76567;DHT22;65428;53.194;6.132;2024-01-07T03:00:16;0.60;99.90
76567;DHT22;65428;53.194;6.132;2024-01-07T03:02:41;0.60;99.90
76567;DHT22;65428;53.194;6.132;2024-01-07T03:05:07;0.60;99.90
76567;DHT22;65428;53.194;6.132;2024-01-07T03:07:33;0.60;99.90
76567;DHT22;65428;53.194;6.132;2024-01-07T03:09:59;0.60;99.90
76567;DHT22;65428;53.194;6.132;2024-01-07T03:12:24;0.60;99.90
76567;DHT22;65428;53.194;6.132;2024-01-07T03:14:50;0.60;99.90
76567;DHT22;65428;53.194;6.132;2024-01-07T03:17:16;0.60;99.90
76567;DHT22;65428;53.194;6.132;2024-01-07T03:19:43;0.70;99.90
76567;DHT22;65428;53.194;6.132;2024-01-07T03:22:08;0.60;99.90
76567;DHT22;65428;53.194;6.132;2024-01-07T03:24:34;0.60;99.90
76567;DHT22;65428;53.194;6.132;2024-01-07T03:27:00;0.60;99.90
76567;DHT22;65428;53.194;6.132;2024-01-07T03:29:25;0.60;99.90
76567;DHT22;65428;53.194;6.132;2024-01-07T03:31:51;0.60;99.90
76567;DHT22;65428;53.194;6.132;2024-01-07T03:34:18;0.60;99.90
76567;DHT22;65428;53.194;6.132;2024-01-07T03:36:44;0.70;99.90
76567;DHT22;65428;53.194;6.132;2024-01-07T03:39:10;0.60;99.90
76567;DHT22;65428;53.194;6.132;2024-01-07T03:41:35;0.70;99.90
76567;DHT22;65428;53.194;6.132;2024-01-07T03:44:01;0.60;99.90
76567;DHT22;65428;53.194;6.132;2024-01-07T03:46:27;1.20;99.90
76567;DHT22;65428;53.194;6.132;2024-01-07T03:48:53;0.70;99.90
76567;DHT22;65428;53.194;6.132;2024-01-07T03:51:19;0.60;99.90
76567;DHT22;65428;53.194;6.132;2024-01-07T03:53:44;0.60;99.90
76567;DHT22;65428;53.194;6.132;2024-01-07T03:56:10;0.60;99.90
76567;DHT22;65428;53.194;6.132;2024-01-07T03:58:36;0.60;99.90
76567;DHT22;65428;53.194;6.132;2024-01-07T04:01:01;0.60;99.90
76567;DHT22;65428;53.194;6.132;2024-01-07T04:03:27;0.40;99.90
76567;DHT22;65428;53.194;6.132;2024-01-07T04:05:53;0.60;99.90
76567;DHT22;65428;53.194;6.132;2024-01-07T04:08:18;0.70;99.90
76567;DHT22;65428;53.194;6.132;2024-01-07T04:10:44;0.60;99.90
76567;DHT22;65428;53.194;6.132;2024-01-07T04:13:10;0.60;99.90
76567;DHT22;65428;53.194;6.132;2024-01-07T04:15:39;0.50;99.90
76567;DHT22;65428;53.194;6.132;2024-01-07T04:18:05;0.60;99.90
76567;DHT22;65428;53.194;6.132;2024-01-07T04:20:31;0.60;99.90
76567;DHT22;65428;53.194;6.132;2024-01-07T04:22:57;0.60;99.90
76567;DHT22;65428;53.194;6.132;2024-01-07T04:25:23;0.60;99.90
76567;DHT22;65428;53.194;6.132;2024-01-07T04:27:49;0.70;99.90
76567;DHT22;65428;53.194;6.132;2024-01-07T04:30:15;0.60;99.90
76567;DHT22;65428;53.194;6.132;2024-01-07T04:32:40;0.60;99.90
76567;DHT22;65428;53.194;6.132;2024-01-07T04:35:07;0.60;99.90
76567;DHT22;65428;53.194;6.132;2024-01-07T04:37:34;0.50;99.90
76567;DHT22;65428;53.194;6.132;2024-01-07T04:40:00;0.50;99.90
76567;DHT22;65428;53.194;6.132;2024-01-07T04:42:26;0.50;99.90
76567;DHT22;65428;53.194;6.132;2024-01-07T04:44:52;0.60;99.90
76567;DHT22;65428;53.194;6.132;2024-01-07T04:47:31;0.50;99.90
76567;DHT22;65428;53.194;6.132;2024-01-07T04:49:57;0.50;99.90
76567;DHT22;65428;53.194;6.132;2024-01-07T04:52:23;0.60;99.90
76567;DHT22;65428;53.194;6.132;2024-01-07T04:54:55;0.60;99.90
76567;DHT22;65428;53.194;6.132;2024-01-07T04:57:22;0.60;99.90
76567;DHT22;65428;53.194;6.132;2024-01-07T04:59:48;0.50;99.90
76567;DHT22;65428;53.194;6.132;2024-01-07T05:02:14;0.50;99.90
76567;DHT22;65428;53.194;6.132;2024-01-07T05:04:41;0.50;99.90
76567;DHT22;65428;53.194;6.132;2024-01-07T05:07:06;0.50;99.90
76567;DHT22;65428;53.194;6.132;2024-01-07T05:09:32;0.60;99.90
76567;DHT22;65428;53.194;6.132;2024-01-07T05:11:58;0.70;99.90
76567;DHT22;65428;53.194;6.132;2024-01-07T05:14:24;0.60;99.90
76567;DHT22;65428;53.194;6.132;2024-01-07T05:16:50;0.40;99.90
76567;DHT22;65428;53.194;6.132;2024-01-07T05:19:16;0.70;99.90
76567;DHT22;65428;53.194;6.132;2024-01-07T05:21:42;0.70;99.90
76567;DHT22;65428;53.194;6.132;2024-01-07T05:24:08;0.60;99.90
76567;DHT22;65428;53.194;6.132;2024-01-07T05:26:43;0.60;99.90
76567;DHT22;65428;53.194;6.132;2024-01-07T05:29:10;0.80;99.90
76567;DHT22;65428;53.194;6.132;2024-01-07T05:31:40;0.60;99.90
76567;DHT22;65428;53.194;6.132;2024-01-07T05:34:06;0.80;99.90
76567;DHT22;65428;53.194;6.132;2024-01-07T05:36:32;0.80;99.90
76567;DHT22;65428;53.194;6.132;2024-01-07T05:38:57;0.70;99.90
76567;DHT22;65428;53.194;6.132;2024-01-07T05:41:23;1.00;99.90
76567;DHT22;65428;53.194;6.132;2024-01-07T05:43:52;0.70;99.90
76567;DHT22;65428;53.194;6.132;2024-01-07T05:46:17;0.80;99.90
76567;DHT22;65428;53.194;6.132;2024-01-07T05:48:49;0.90;99.90
76567;DHT22;65428;53.194;6.132;2024-01-07T05:51:15;0.70;99.90
76567;DHT22;65428;53.194;6.132;2024-01-07T05:53:41;0.80;99.90
76567;DHT22;65428;53.194;6.132;2024-01-07T05:56:07;0.80;99.90
76567;DHT22;65428;53.194;6.132;2024-01-07T05:58:33;0.80;99.90
76567;DHT22;65428;53.194;6.132;2024-01-07T06:00:59;0.60;99.90
76567;DHT22;65428;53.194;6.132;2024-01-07T06:03:26;0.60;99.90
76567;DHT22;65428;53.194;6.132;2024-01-07T06:05:51;0.80;99.90
76567;DHT22;65428;53.194;6.132;2024-01-07T06:08:17;0.90;99.90
76567;DHT22;65428;53.194;6.132;2024-01-07T06:10:43;0.80;99.90
76567;DHT22;65428;53.194;6.132;2024-01-07T06:13:09;0.80;99.90
76567;DHT22;65428;53.194;6.132;2024-01-07T06:15:34;0.70;99.90
76567;DHT22;65428;53.194;6.132;2024-01-07T06:18:01;0.60;99.90
76567;DHT22;65428;53.194;6.132;2024-01-07T06:20:26;0.60;99.90
76567;DHT22;65428;53.194;6.132;2024-01-07T06:22:53;0.60;99.90
76567;DHT22;65428;53.194;6.132;2024-01-07T06:25:19;0.60;99.90
76567;DHT22;65428;53.194;6.132;2024-01-07T06:27:46;0.60;99.90
76567;DHT22;65428;53.194;6.132;2024-01-07T06:30:12;0.80;99.90
76567;DHT22;65428;53.194;6.132;2024-01-07T06:32:38;0.70;99.90
76567;DHT22;65428;53.194;6.132;2024-01-07T06:35:03;0.70;99.90
76567;DHT22;65428;53.194;6.132;2024-01-07T06:37:30;0.70;99.90
76567;DHT22;65428;53.194;6.132;2024-01-07T06:39:56;0.70;99.90
76567;DHT22;65428;53.194;6.132;2024-01-07T06:42:22;0.90;99.90
76567;DHT22;65428;53.194;6.132;2024-01-07T06:44:48;0.70;99.90
76567;DHT22;65428;53.194;6.132;2024-01-07T06:47:13;0.50;99.90
76567;DHT22;65428;53.194;6.132;2024-01-07T06:49:40;0.70;99.90
76567;DHT22;65428;53.194;6.132;2024-01-07T06:52:05;0.80;99.90
76567;DHT22;65428;53.194;6.132;2024-01-07T06:54:31;0.70;99.90
76567;DHT22;65428;53.194;6.132;2024-01-07T06:56:57;0.80;99.90
76567;DHT22;65428;53.194;6.132;2024-01-07T06:59:22;0.60;99.90
76567;DHT22;65428;53.194;6.132;2024-01-07T07:01:48;0.70;99.90
76567;DHT22;65428;53.194;6.132;2024-01-07T07:04:14;0.60;99.90
76567;DHT22;65428;53.194;6.132;2024-01-07T07:06:39;0.60;99.90
76567;DHT22;65428;53.194;6.132;2024-01-07T07:09:05;0.60;99.90
76567;DHT22;65428;53.194;6.132;2024-01-07T07:11:32;0.70;99.90
76567;DHT22;65428;53.194;6.132;2024-01-07T07:13:58;0.60;99.90
76567;DHT22;65428;53.194;6.132;2024-01-07T07:16:23;0.50;99.90
76567;DHT22;65428;53.194;6.132;2024-01-07T07:18:49;0.60;99.90
76567;DHT22;65428;53.194;6.132;2024-01-07T07:21:15;0.60;99.90
76567;DHT22;65428;53.194;6.132;2024-01-07T07:23:40;0.80;99.90
76567;DHT22;65428;53.194;6.132;2024-01-07T07:26:06;0.60;99.90
76567;DHT22;65428;53.194;6.132;2024-01-07T07:28:33;0.60;99.90
76567;DHT22;65428;53.194;6.132;2024-01-07T07:30:59;0.60;99.90
76567;DHT22;65428;53.194;6.132;2024-01-07T07:33:25;0.60;99.90
76567;DHT22;65428;53.194;6.132;2024-01-07T07:35:50;0.50;99.90
76567;DHT22;65428;53.194;6.132;2024-01-07T07:38:16;0.70;99.90
76567;DHT22;65428;53.194;6.132;2024-01-07T07:40:42;0.50;99.90
76567;DHT22;65428;53.194;6.132;2024-01-07T07:43:08;0.30;99.90
76567;DHT22;65428;53.194;6.132;2024-01-07T07:45:34;0.50;99.90
76567;DHT22;65428;53.194;6.132;2024-01-07T07:47:59;0.30;99.90
76567;DHT22;65428;53.194;6.132;2024-01-07T07:50:25;0.10;99.90
76567;DHT22;65428;53.194;6.132;2024-01-07T07:52:51;0.20;99.90
76567;DHT22;65428;53.194;6.132;2024-01-07T07:55:17;0.20;99.90
76567;DHT22;65428;53.194;6.132;2024-01-07T07:57:42;0.20;99.90
76567;DHT22;65428;53.194;6.132;2024-01-07T08:00:08;0.20;99.90
76567;DHT22;65428;53.194;6.132;2024-01-07T08:02:38;0.00;99.90
76567;DHT22;65428;53.194;6.132;2024-01-07T08:05:03;0.00;99.90
76567;DHT22;65428;53.194;6.132;2024-01-07T08:07:29;0.00;99.90
76567;DHT22;65428;53.194;6.132;2024-01-07T08:09:55;-0.10;99.90
76567;DHT22;65428;53.194;6.132;2024-01-07T08:12:23;-0.10;99.90
76567;DHT22;65428;53.194;6.132;2024-01-07T08:14:49;-0.10;99.90
76567;DHT22;65428;53.194;6.132;2024-01-07T08:17:15;-0.20;99.90
76567;DHT22;65428;53.194;6.132;2024-01-07T08:19:40;0.10;99.90
76567;DHT22;65428;53.194;6.132;2024-01-07T08:22:06;-0.20;99.90
76567;DHT22;65428;53.194;6.132;2024-01-07T08:24:32;-0.10;99.90
76567;DHT22;65428;53.194;6.132;2024-01-07T08:26:58;-0.20;99.90
76567;DHT22;65428;53.194;6.132;2024-01-07T08:29:24;-0.10;99.90
76567;DHT22;65428;53.194;6.132;2024-01-07T08:31:49;-0.10;99.90
76567;DHT22;65428;53.194;6.132;2024-01-07T08:34:16;0.00;99.90
76567;DHT22;65428;53.194;6.132;2024-01-07T08:36:41;0.10;99.90
76567;DHT22;65428;53.194;6.132;2024-01-07T08:39:07;0.20;99.90
76567;DHT22;65428;53.194;6.132;2024-01-07T08:41:33;0.50;99.90
76567;DHT22;65428;53.194;6.132;2024-01-07T08:43:59;0.40;99.90
76567;DHT22;65428;53.194;6.132;2024-01-07T08:46:25;0.40;99.90
76567;DHT22;65428;53.194;6.132;2024-01-07T08:48:50;0.60;99.90
76567;DHT22;65428;53.194;6.132;2024-01-07T08:51:16;0.50;99.90
76567;DHT22;65428;53.194;6.132;2024-01-07T08:53:42;0.50;99.90
76567;DHT22;65428;53.194;6.132;2024-01-07T08:56:07;0.60;99.90
76567;DHT22;65428;53.194;6.132;2024-01-07T08:58:34;0.70;99.90
76567;DHT22;65428;53.194;6.132;2024-01-07T09:00:59;0.70;99.90
76567;DHT22;65428;53.194;6.132;2024-01-07T09:03:25;0.60;99.90
76567;DHT22;65428;53.194;6.132;2024-01-07T09:05:52;0.70;99.90
76567;DHT22;65428;53.194;6.132;2024-01-07T09:08:18;1.00;99.90
76567;DHT22;65428;53.194;6.132;2024-01-07T09:10:43;0.80;99.90
76567;DHT22;65428;53.194;6.132;2024-01-07T09:13:09;0.90;99.90
76567;DHT22;65428;53.194;6.132;2024-01-07T09:15:35;0.80;99.90
76567;DHT22;65428;53.194;6.132;2024-01-07T09:18:00;0.90;99.90
76567;DHT22;65428;53.194;6.132;2024-01-07T09:20:27;0.80;99.90
76567;DHT22;65428;53.194;6.132;2024-01-07T09:22:53;1.00;99.90
76567;DHT22;65428;53.194;6.132;2024-01-07T09:25:18;0.90;99.90
76567;DHT22;65428;53.194;6.132;2024-01-07T09:27:44;0.90;99.90
76567;DHT22;65428;53.194;6.132;2024-01-07T09:30:10;0.80;99.90
76567;DHT22;65428;53.194;6.132;2024-01-07T09:32:37;1.00;99.90
76567;DHT22;65428;53.194;6.132;2024-01-07T09:35:03;1.20;99.90
76567;DHT22;65428;53.194;6.132;2024-01-07T09:37:32;1.10;99.90
76567;DHT22;65428;53.194;6.132;2024-01-07T09:39:58;1.10;99.90
76567;DHT22;65428;53.194;6.132;2024-01-07T09:42:24;1.20;99.90
76567;DHT22;65428;53.194;6.132;2024-01-07T09:44:50;1.40;99.90
76567;DHT22;65428;53.194;6.132;2024-01-07T09:47:17;1.20;99.90
76567;DHT22;65428;53.194;6.132;2024-01-07T09:49:43;1.20;99.90
76567;DHT22;65428;53.194;6.132;2024-01-07T09:52:11;1.20;99.90
76567;DHT22;65428;53.194;6.132;2024-01-07T09:54:38;1.30;99.90
76567;DHT22;65428;53.194;6.132;2024-01-07T09:57:05;1.40;99.90
76567;DHT22;65428;53.194;6.132;2024-01-07T09:59:36;1.40;99.90
76567;DHT22;65428;53.194;6.132;2024-01-07T10:02:07;1.50;99.90
76567;DHT22;65428;53.194;6.132;2024-01-07T10:04:33;1.40;99.90
76567;DHT22;65428;53.194;6.132;2024-01-07T10:06:59;1.60;99.90
76567;DHT22;65428;53.194;6.132;2024-01-07T10:09:34;1.70;99.90
76567;DHT22;65428;53.194;6.132;2024-01-07T10:11:59;1.50;99.90
76567;DHT22;65428;53.194;6.132;2024-01-07T10:14:25;1.50;99.90
76567;DHT22;65428;53.194;6.132;2024-01-07T10:16:54;1.40;99.90
76567;DHT22;65428;53.194;6.132;2024-01-07T10:19:21;1.50;99.90
76567;DHT22;65428;53.194;6.132;2024-01-07T10:22:01;1.70;99.90
76567;DHT22;65428;53.194;6.132;2024-01-07T10:24:31;1.60;99.90
76567;DHT22;65428;53.194;6.132;2024-01-07T10:27:00;1.60;99.90
76567;DHT22;65428;53.194;6.132;2024-01-07T10:29:26;1.60;99.90
76567;DHT22;65428;53.194;6.132;2024-01-07T10:31:52;1.70;99.90
76567;DHT22;65428;53.194;6.132;2024-01-07T10:34:23;1.80;99.90
76567;DHT22;65428;53.194;6.132;2024-01-07T10:36:51;2.10;99.90
76567;DHT22;65428;53.194;6.132;2024-01-07T10:39:17;1.70;99.90
76567;DHT22;65428;53.194;6.132;2024-01-07T10:41:43;1.80;99.90
76567;DHT22;65428;53.194;6.132;2024-01-07T10:44:10;2.00;99.90
76567;DHT22;65428;53.194;6.132;2024-01-07T10:46:37;1.90;99.90
76567;DHT22;65428;53.194;6.132;2024-01-07T10:49:17;2.10;99.90
76567;DHT22;65428;53.194;6.132;2024-01-07T10:51:45;2.10;99.90
76567;DHT22;65428;53.194;6.132;2024-01-07T10:54:13;2.20;99.90
76567;DHT22;65428;53.194;6.132;2024-01-07T10:56:48;2.30;99.90
76567;DHT22;65428;53.194;6.132;2024-01-07T10:59:16;2.50;99.90
76567;DHT22;65428;53.194;6.132;2024-01-07T11:01:43;2.80;99.90
76567;DHT22;65428;53.194;6.132;2024-01-07T11:04:20;3.20;99.90
76567;DHT22;65428;53.194;6.132;2024-01-07T11:06:55;3.60;99.90
76567;DHT22;65428;53.194;6.132;2024-01-07T11:12:27;4.20;99.90
76567;DHT22;65428;53.194;6.132;2024-01-07T11:14:53;4.50;99.90
76567;DHT22;65428;53.194;6.132;2024-01-07T11:20:07;4.50;92.90
76567;DHT22;65428;53.194;6.132;2024-01-07T11:22:34;4.30;93.50
76567;DHT22;65428;53.194;6.132;2024-01-07T11:25:03;4.20;97.60
76567;DHT22;65428;53.194;6.132;2024-01-07T11:27:48;4.30;99.30
76567;DHT22;65428;53.194;6.132;2024-01-07T11:30:20;4.40;99.70
76567;DHT22;65428;53.194;6.132;2024-01-07T11:32:46;4.60;95.70
76567;DHT22;65428;53.194;6.132;2024-01-07T11:35:13;4.50;95.60
76567;DHT22;65428;53.194;6.132;2024-01-07T11:37:38;4.40;90.70
76567;DHT22;65428;53.194;6.132;2024-01-07T11:40:06;4.30;90.90
76567;DHT22;65428;53.194;6.132;2024-01-07T11:42:32;4.00;94.80
76567;DHT22;65428;53.194;6.132;2024-01-07T11:44:58;3.90;95.90
76567;DHT22;65428;53.194;6.132;2024-01-07T11:47:24;4.00;97.50
76567;DHT22;65428;53.194;6.132;2024-01-07T11:49:53;3.70;99.30
76567;DHT22;65428;53.194;6.132;2024-01-07T11:52:20;3.40;99.90
76567;DHT22;65428;53.194;6.132;2024-01-07T11:54:47;3.30;99.90
76567;DHT22;65428;53.194;6.132;2024-01-07T11:57:13;3.10;99.90
76567;DHT22;65428;53.194;6.132;2024-01-07T11:59:39;3.00;99.90
76567;DHT22;65428;53.194;6.132;2024-01-07T12:02:04;2.90;99.90
76567;DHT22;65428;53.194;6.132;2024-01-07T12:04:32;3.00;99.90
76567;DHT22;65428;53.194;6.132;2024-01-07T12:06:58;3.20;99.90
76567;DHT22;65428;53.194;6.132;2024-01-07T12:09:25;3.40;99.90
76567;DHT22;65428;53.194;6.132;2024-01-07T12:11:51;3.90;99.90
76567;DHT22;65428;53.194;6.132;2024-01-07T12:14:17;4.40;99.90
76567;DHT22;65428;53.194;6.132;2024-01-07T12:16:43;4.90;99.90
76567;DHT22;65428;53.194;6.132;2024-01-07T12:19:09;5.30;95.70
76567;DHT22;65428;53.194;6.132;2024-01-07T12:21:38;5.50;92.20
76567;DHT22;65428;53.194;6.132;2024-01-07T12:24:05;5.90;89.20
76567;DHT22;65428;53.194;6.132;2024-01-07T12:26:31;5.90;83.80
76567;DHT22;65428;53.194;6.132;2024-01-07T12:28:59;5.60;87.30
76567;DHT22;65428;53.194;6.132;2024-01-07T12:31:32;5.30;88.20
76567;DHT22;65428;53.194;6.132;2024-01-07T12:33:58;4.80;90.30
76567;DHT22;65428;53.194;6.132;2024-01-07T12:36:24;4.40;96.40
76567;DHT22;65428;53.194;6.132;2024-01-07T12:38:50;4.30;99.90
76567;DHT22;65428;53.194;6.132;2024-01-07T12:41:23;3.90;99.90
76567;DHT22;65428;53.194;6.132;2024-01-07T12:43:49;3.80;99.90
76567;DHT22;65428;53.194;6.132;2024-01-07T12:46:16;3.70;99.90
76567;DHT22;65428;53.194;6.132;2024-01-07T12:48:44;3.50;99.90
76567;DHT22;65428;53.194;6.132;2024-01-07T12:51:10;3.40;99.90
76567;DHT22;65428;53.194;6.132;2024-01-07T12:53:35;3.20;99.90
76567;DHT22;65428;53.194;6.132;2024-01-07T12:56:01;3.00;99.90
76567;DHT22;65428;53.194;6.132;2024-01-07T12:58:27;3.20;99.90
76567;DHT22;65428;53.194;6.132;2024-01-07T13:00:53;3.20;99.90
76567;DHT22;65428;53.194;6.132;2024-01-07T13:03:21;3.50;99.90
76567;DHT22;65428;53.194;6.132;2024-01-07T13:05:48;3.70;99.90
76567;DHT22;65428;53.194;6.132;2024-01-07T13:08:16;3.40;99.90
76567;DHT22;65428;53.194;6.132;2024-01-07T13:10:50;3.40;99.90
76567;DHT22;65428;53.194;6.132;2024-01-07T13:13:15;3.00;99.90
76567;DHT22;65428;53.194;6.132;2024-01-07T13:15:41;3.30;99.90
76567;DHT22;65428;53.194;6.132;2024-01-07T13:18:07;3.60;99.90
76567;DHT22;65428;53.194;6.132;2024-01-07T13:20:33;3.80;99.90
76567;DHT22;65428;53.194;6.132;2024-01-07T13:23:01;4.70;99.90
76567;DHT22;65428;53.194;6.132;2024-01-07T13:25:27;5.00;99.90
76567;DHT22;65428;53.194;6.132;2024-01-07T13:27:53;5.40;98.00
76567;DHT22;65428;53.194;6.132;2024-01-07T13:30:21;5.70;97.80
76567;DHT22;65428;53.194;6.132;2024-01-07T13:32:47;5.40;94.50
76567;DHT22;65428;53.194;6.132;2024-01-07T13:35:14;5.20;92.60
76567;DHT22;65428;53.194;6.132;2024-01-07T13:37:40;4.60;95.90
76567;DHT22;65428;53.194;6.132;2024-01-07T13:40:10;4.50;98.10
76567;DHT22;65428;53.194;6.132;2024-01-07T13:42:39;4.20;99.90
76567;DHT22;65428;53.194;6.132;2024-01-07T13:45:05;4.00;99.90
76567;DHT22;65428;53.194;6.132;2024-01-07T13:47:31;3.80;99.90
76567;DHT22;65428;53.194;6.132;2024-01-07T13:49:57;3.70;99.90
76567;DHT22;65428;53.194;6.132;2024-01-07T13:52:22;3.50;99.90
76567;DHT22;65428;53.194;6.132;2024-01-07T13:54:48;3.30;99.90
76567;DHT22;65428;53.194;6.132;2024-01-07T13:57:14;3.40;99.90
76567;DHT22;65428;53.194;6.132;2024-01-07T13:59:40;3.30;99.90
76567;DHT22;65428;53.194;6.132;2024-01-07T14:02:07;3.40;99.90
76567;DHT22;65428;53.194;6.132;2024-01-07T14:04:33;3.50;99.90
76567;DHT22;65428;53.194;6.132;2024-01-07T14:06:59;3.30;99.90
76567;DHT22;65428;53.194;6.132;2024-01-07T14:09:25;3.30;99.90
76567;DHT22;65428;53.194;6.132;2024-01-07T14:11:51;3.30;99.90
76567;DHT22;65428;53.194;6.132;2024-01-07T14:14:17;3.20;99.90
76567;DHT22;65428;53.194;6.132;2024-01-07T14:16:47;3.10;99.90
76567;DHT22;65428;53.194;6.132;2024-01-07T14:19:13;3.10;99.90
76567;DHT22;65428;53.194;6.132;2024-01-07T14:21:40;3.90;99.90
76567;DHT22;65428;53.194;6.132;2024-01-07T14:24:06;3.40;99.90
76567;DHT22;65428;53.194;6.132;2024-01-07T14:26:32;3.40;99.90
76567;DHT22;65428;53.194;6.132;2024-01-07T14:28:58;3.30;99.90
76567;DHT22;65428;53.194;6.132;2024-01-07T14:31:23;3.60;99.90
76567;DHT22;65428;53.194;6.132;2024-01-07T14:33:49;3.40;99.90
76567;DHT22;65428;53.194;6.132;2024-01-07T14:36:15;3.50;99.90
76567;DHT22;65428;53.194;6.132;2024-01-07T14:38:47;2.90;99.90
76567;DHT22;65428;53.194;6.132;2024-01-07T14:41:16;2.80;99.90
76567;DHT22;65428;53.194;6.132;2024-01-07T14:43:42;2.50;99.90
76567;DHT22;65428;53.194;6.132;2024-01-07T14:46:08;2.40;99.90
76567;DHT22;65428;53.194;6.132;2024-01-07T14:48:34;2.40;99.90
76567;DHT22;65428;53.194;6.132;2024-01-07T14:51:01;2.00;99.90
76567;DHT22;65428;53.194;6.132;2024-01-07T14:53:27;2.00;99.90
76567;DHT22;65428;53.194;6.132;2024-01-07T14:55:54;2.10;99.90
76567;DHT22;65428;53.194;6.132;2024-01-07T14:58:20;2.00;99.90
76567;DHT22;65428;53.194;6.132;2024-01-07T15:00:48;1.90;99.90
76567;DHT22;65428;53.194;6.132;2024-01-07T15:03:13;2.00;99.90
76567;DHT22;65428;53.194;6.132;2024-01-07T15:05:39;1.70;99.90
76567;DHT22;65428;53.194;6.132;2024-01-07T15:08:07;1.60;99.90
76567;DHT22;65428;53.194;6.132;2024-01-07T15:10:33;1.40;99.90
76567;DHT22;65428;53.194;6.132;2024-01-07T15:12:59;1.30;99.90
76567;DHT22;65428;53.194;6.132;2024-01-07T15:15:24;1.20;99.90
76567;DHT22;65428;53.194;6.132;2024-01-07T15:17:58;1.00;99.90
76567;DHT22;65428;53.194;6.132;2024-01-07T15:20:24;1.00;99.90
76567;DHT22;65428;53.194;6.132;2024-01-07T15:22:50;0.90;99.90
76567;DHT22;65428;53.194;6.132;2024-01-07T15:25:18;0.80;99.90
76567;DHT22;65428;53.194;6.132;2024-01-07T15:27:44;0.80;99.90
76567;DHT22;65428;53.194;6.132;2024-01-07T15:30:10;0.60;99.90
76567;DHT22;65428;53.194;6.132;2024-01-07T15:32:36;0.80;99.90
76567;DHT22;65428;53.194;6.132;2024-01-07T15:35:03;0.60;99.90
76567;DHT22;65428;53.194;6.132;2024-01-07T15:37:31;0.20;99.90
76567;DHT22;65428;53.194;6.132;2024-01-07T15:39:57;0.40;99.90
76567;DHT22;65428;53.194;6.132;2024-01-07T15:42:23;0.70;99.90
76567;DHT22;65428;53.194;6.132;2024-01-07T15:44:49;0.60;99.90